Time;durP1;ratioP1;P1;durP2;ratioP2;P2;SDS_P1;SDS_P2;PMS_P1;PMS_P2;Temp;Humidity;BMP_temperature;BMP_pressure;BME280_temperature;BME280_humidity;BME280_pressure;Samples;Min_cycle;Max_cycle;Signal;HPM_P1;HPM_P2
2021/09/20 00:02:05;;;;;;;18.98;12.15;;;18.70;99.90;;;;;;5033642;28;20084;-71
2021/09/20 00:04:31;;;;;;;16.90;11.63;;;18.60;99.90;;;;;;5015849;28;20037;-71
2021/09/20 00:06:57;;;;;;;14.25;10.85;;;18.70;99.90;;;;;;5015724;28;20035;-70
2021/09/20 00:09:23;;;;;;;18.20;11.80;;;18.80;99.90;;;;;;5033317;28;20389;-71
2021/09/20 00:11:49;;;;;;;16.08;11.95;;;18.80;99.90;;;;;;5015701;28;20033;-72
2021/09/20 00:14:15;;;;;;;16.38;11.95;;;18.80;99.90;;;;;;5033434;28;20370;-72
2021/09/20 00:16:41;;;;;;;15.48;12.57;;;18.70;99.90;;;;;;5015614;28;20021;-72
2021/09/20 00:19:07;;;;;;;16.00;12.45;;;18.60;99.90;;;;;;5015605;28;20037;-73
2021/09/20 00:21:33;;;;;;;14.07;12.13;;;;;;;;;;5033404;28;20018;-70
2021/09/20 00:23:59;;;;;;;16.67;11.40;;;;;;;;;;5033575;28;20068;-72
2021/09/20 00:26:26;;;;;;;14.38;11.80;;;;;;;;;;5015607;28;20026;-72
2021/09/20 00:28:52;;;;;;;17.23;13.20;;;19.00;99.90;;;;;;5032976;28;20029;-70
2021/09/20 00:31:18;;;;;;;14.07;11.88;;;18.60;99.90;;;;;;5033484;28;20489;-70
2021/09/20 00:33:44;;;;;;;14.38;11.25;;;;;;;;;;5033173;28;20037;-72
2021/09/20 00:36:10;;;;;;;14.52;11.38;;;;;;;;;;5015399;28;20412;-72
2021/09/20 00:38:36;;;;;;;15.82;12.40;;;;;;;;;;5033186;28;20087;-70
2021/09/20 00:41:03;;;;;;;23.85;13.23;;;18.80;99.90;;;;;;5015362;28;20031;-70
2021/09/20 00:43:29;;;;;;;17.30;14.15;;;18.70;99.90;;;;;;5033059;28;20492;-70
2021/09/20 00:45:55;;;;;;;19.98;13.73;;;18.70;99.90;;;;;;5015282;28;20121;-69
2021/09/20 00:48:21;;;;;;;17.90;13.77;;;18.60;99.90;;;;;;5014968;28;20474;-72
2021/09/20 00:50:47;;;;;;;19.30;13.77;;;18.50;99.90;;;;;;5015232;28;20036;-72
2021/09/20 00:53:13;;;;;;;17.25;13.35;;;;;;;;;;5032970;28;20029;-68
2021/09/20 00:55:40;;;;;;;15.45;12.88;;;18.50;99.90;;;;;;5015187;28;20474;-67
2021/09/20 00:58:10;;;;;;;18.05;12.23;;;;;;;;;;5032983;28;20025;-69
2021/09/20 01:00:36;;;;;;;20.85;12.63;;;18.50;99.90;;;;;;5032952;28;20029;-69
2021/09/20 01:03:01;;;;;;;15.18;13.57;;;18.40;99.90;;;;;;5032904;28;20025;-70
2021/09/20 01:05:27;;;;;;;19.02;14.20;;;18.40;99.90;;;;;;5033074;28;20079;-68
2021/09/20 01:07:53;;;;;;;22.33;13.05;;;18.30;99.90;;;;;;5032758;28;20073;-70
2021/09/20 01:10:19;;;;;;;14.65;13.05;;;18.30;99.90;;;;;;5032580;28;20022;-70
2021/09/20 01:12:45;;;;;;;19.15;12.57;;;18.20;99.90;;;;;;5033053;28;20060;-67
2021/09/20 01:15:12;;;;;;;20.17;13.63;;;18.30;99.90;;;;;;5015062;28;20040;-70
2021/09/20 01:17:37;;;;;;;17.70;13.65;;;18.30;99.90;;;;;;5014898;28;20030;-71
2021/09/20 01:20:05;;;;;;;18.38;13.98;;;18.40;99.90;;;;;;5033062;28;20033;-69
2021/09/20 01:22:32;;;;;;;19.13;13.10;;;18.40;99.90;;;;;;5014903;28;20025;-69
2021/09/20 01:24:58;;;;;;;16.52;14.05;;;18.40;99.90;;;;;;5032696;28;20116;-72
2021/09/20 01:27:24;;;;;;;17.10;13.77;;;18.30;99.90;;;;;;5032816;28;20468;-70
2021/09/20 01:29:50;;;;;;;17.27;14.40;;;18.30;99.90;;;;;;5032695;28;20025;-71
2021/09/20 01:32:16;;;;;;;17.30;15.02;;;18.30;99.90;;;;;;5014818;28;20470;-69
2021/09/20 01:34:43;;;;;;;18.20;14.50;;;18.30;99.90;;;;;;5032301;28;20053;-70
2021/09/20 01:37:09;;;;;;;16.48;14.75;;;18.30;99.90;;;;;;5014813;28;20033;-68
2021/09/20 01:39:36;;;;;;;21.92;15.98;;;18.30;99.90;;;;;;5032659;28;20484;-71
2021/09/20 01:42:03;;;;;;;19.05;16.50;;;18.10;99.90;;;;;;5032245;28;20030;-69
2021/09/20 01:44:29;;;;;;;19.08;14.98;;;18.10;99.90;;;;;;5032759;28;20029;-69
2021/09/20 01:46:56;;;;;;;18.27;14.50;;;18.10;99.90;;;;;;5014318;28;20026;-70
2021/09/20 01:49:24;;;;;;;22.42;15.23;;;18.20;99.90;;;;;;5014759;28;20060;-71
2021/09/20 01:51:51;;;;;;;20.48;14.93;;;18.20;99.90;;;;;;5014663;28;20034;-68
2021/09/20 01:54:17;;;;;;;15.98;14.07;;;18.10;99.90;;;;;;5032465;28;20033;-70
2021/09/20 01:56:46;;;;;;;23.27;16.27;;;18.10;99.90;;;;;;5032424;28;20091;-69
2021/09/20 01:59:12;;;;;;;21.08;16.00;;;18.10;99.90;;;;;;5032114;28;20112;-70
2021/09/20 02:01:38;;;;;;;22.23;15.55;;;18.00;99.90;;;;;;5035533;28;20101;-71
2021/09/20 02:04:04;;;;;;;22.10;15.63;;;18.00;99.90;;;;;;5035901;28;20488;-70
2021/09/20 02:06:30;;;;;;;26.65;16.85;;;18.00;99.90;;;;;;5035808;28;20065;-70
2021/09/20 02:08:56;;;;;;;25.10;15.15;;;17.90;99.90;;;;;;5017928;28;20437;-71
2021/09/20 02:11:23;;;;;;;24.10;16.08;;;18.00;99.90;;;;;;5017927;28;20466;-71
2021/09/20 02:13:50;;;;;;;22.48;16.27;;;18.10;99.90;;;;;;5017869;28;20439;-71
2021/09/20 02:16:17;;;;;;;22.58;16.17;;;18.10;99.90;;;;;;5017825;28;20379;-70
2021/09/20 02:18:43;;;;;;;20.48;15.93;;;17.90;99.90;;;;;;5035616;28;20156;-73
2021/09/20 02:21:10;;;;;;;25.65;16.25;;;17.90;99.90;;;;;;5035864;28;20040;-71
2021/09/20 02:23:37;;;;;;;20.10;15.88;;;17.80;99.90;;;;;;5035628;28;20478;-72
2021/09/20 02:26:04;;;;;;;21.23;15.32;;;17.90;99.90;;;;;;5017667;28;20021;-73
2021/09/20 02:28:36;;;;;;;19.40;15.02;;;17.90;99.90;;;;;;5035422;28;20030;-71
2021/09/20 02:31:06;;;;;;;19.02;15.68;;;17.90;99.90;;;;;;5035475;28;20033;-70
2021/09/20 02:33:34;;;;;;;21.30;15.87;;;17.70;99.90;;;;;;5035386;28;20080;-71
2021/09/20 02:36:02;;;;;;;18.38;15.73;;;17.70;99.90;;;;;;5034843;28;20071;-73
2021/09/20 02:38:28;;;;;;;19.48;16.33;;;17.70;99.90;;;;;;5017384;28;20045;-72
2021/09/20 02:40:55;;;;;;;22.63;16.60;;;17.70;99.90;;;;;;5035234;28;20024;-70
2021/09/20 02:43:21;;;;;;;22.17;16.05;;;17.70;99.90;;;;;;5035134;28;20057;-72
2021/09/20 02:45:47;;;;;;;19.55;17.35;;;17.70;99.90;;;;;;5035063;28;20061;-72
2021/09/20 02:48:13;;;;;;;19.88;17.40;;;17.70;99.90;;;;;;5034957;28;20041;-72
2021/09/20 02:50:39;;;;;;;22.50;16.92;;;17.70;99.90;;;;;;5034785;28;20040;-72
2021/09/20 02:53:05;;;;;;;20.77;16.40;;;17.70;99.90;;;;;;5017098;28;20462;-72
2021/09/20 02:55:32;;;;;;;23.70;14.02;;;17.80;99.90;;;;;;5034926;28;20025;-71
2021/09/20 02:57:58;;;;;;;22.52;16.25;;;17.80;99.90;;;;;;5034898;28;20036;-72
2021/09/20 03:00:25;;;;;;;22.05;15.85;;;17.80;99.90;;;;;;5034861;28;20026;-71
2021/09/20 03:02:51;;;;;;;17.33;14.60;;;17.80;99.90;;;;;;5034477;28;20441;-73
2021/09/20 03:05:20;;;;;;;18.42;14.80;;;17.80;99.90;;;;;;5034793;28;20056;-73
2021/09/20 03:07:46;;;;;;;22.73;15.65;;;17.80;99.90;;;;;;5034587;28;20030;-70
2021/09/20 03:10:12;;;;;;;22.20;17.13;;;17.70;99.90;;;;;;5034387;28;20103;-72
2021/09/20 03:12:45;;;;;;;24.90;18.45;;;17.60;99.90;;;;;;5033671;28;20041;-70
2021/09/20 03:15:12;;;;;;;20.75;17.27;;;17.60;99.90;;;;;;5016299;28;20116;-70
2021/09/20 03:17:38;;;;;;;21.58;15.77;;;17.60;99.90;;;;;;5016676;28;20033;-71
2021/09/20 03:20:04;;;;;;;22.63;15.35;;;17.70;99.90;;;;;;5016801;28;20060;-72
2021/09/20 03:22:30;;;;;;;24.80;18.88;;;17.70;99.90;;;;;;5016688;28;20026;-75
2021/09/20 03:24:56;;;;;;;25.58;18.88;;;17.60;99.90;;;;;;5034372;28;20171;-74
2021/09/20 03:27:22;;;;;;;30.48;19.52;;;17.50;99.90;;;;;;5033963;28;20538;-72
2021/09/20 03:29:48;;;;;;;31.40;17.40;;;17.40;99.90;;;;;;5034307;28;20374;-72
2021/09/20 03:32:14;;;;;;;28.80;18.65;;;17.50;99.90;;;;;;5034019;28;20036;-72
2021/09/20 03:34:40;;;;;;;31.90;18.95;;;17.40;99.90;;;;;;5016019;28;20050;-72
2021/09/20 03:37:15;;;;;;;30.83;17.25;;;17.50;99.90;;;;;;5034172;28;20037;-70
2021/09/20 03:39:40;;;;;;;19.73;15.45;;;17.50;99.90;;;;;;5034442;28;20033;-72
2021/09/20 03:42:06;;;;;;;19.17;16.05;;;17.50;99.90;;;;;;5016243;28;20386;-69
2021/09/20 03:44:32;;;;;;;19.48;14.30;;;17.50;99.90;;;;;;5016258;28;20079;-71
2021/09/20 03:46:58;;;;;;;23.30;15.88;;;17.60;99.90;;;;;;5033906;28;20036;-71
2021/09/20 03:49:24;;;;;;;24.38;16.73;;;17.60;99.90;;;;;;5033631;28;20027;-71
2021/09/20 03:51:50;;;;;;;20.58;15.63;;;17.50;99.90;;;;;;5033886;28;20102;-71
2021/09/20 03:54:15;;;;;;;22.33;16.08;;;17.60;99.90;;;;;;5034160;28;20389;-68
2021/09/20 03:56:41;;;;;;;20.13;14.75;;;17.60;99.90;;;;;;5033795;28;20029;-71
2021/09/20 03:59:07;;;;;;;21.98;14.85;;;17.60;99.90;;;;;;5015953;28;20720;-70
2021/09/20 04:01:33;;;;;;;20.13;15.05;;;17.60;99.90;;;;;;5015950;28;20037;-71
2021/09/20 04:03:59;;;;;;;19.10;15.88;;;17.60;99.90;;;;;;5033623;28;20100;-72
2021/09/20 04:06:25;;;;;;;22.95;15.63;;;17.60;99.90;;;;;;5015872;28;20060;-73
2021/09/20 04:08:53;;;;;;;22.25;17.35;;;17.60;99.90;;;;;;5015778;28;20029;-72
2021/09/20 04:11:19;;;;;;;24.20;15.45;;;17.60;99.90;;;;;;5015818;28;20033;-72
2021/09/20 04:13:45;;;;;;;21.58;15.57;;;17.60;99.90;;;;;;5033524;28;20044;-72
2021/09/20 04:16:10;;;;;;;21.38;15.45;;;17.60;99.90;;;;;;5033469;28;20509;-70
2021/09/20 04:18:36;;;;;;;29.48;15.95;;;17.60;99.90;;;;;;5033156;28;20091;-72
2021/09/20 04:21:02;;;;;;;18.67;16.63;;;17.60;99.90;;;;;;5015612;28;20438;-72
2021/09/20 04:23:28;;;;;;;28.17;17.88;;;17.50;99.90;;;;;;5032657;28;20029;-70
2021/09/20 04:25:54;;;;;;;25.80;16.65;;;17.50;99.90;;;;;;5015513;28;20025;-71
2021/09/20 04:28:20;;;;;;;23.80;16.98;;;17.50;99.90;;;;;;5033178;28;20076;-70
2021/09/20 04:30:47;;;;;;;24.92;16.65;;;17.50;99.90;;;;;;5015466;28;20468;-71
2021/09/20 04:33:20;;;;;;;24.23;17.33;;;17.50;99.90;;;;;;5015531;28;20029;-72
2021/09/20 04:35:46;;;;;;;24.95;17.73;;;17.40;99.90;;;;;;5033024;28;20053;-72
2021/09/20 04:38:19;;;;;;;21.67;14.88;;;17.40;99.90;;;;;;5033119;28;20509;-72
2021/09/20 04:40:45;;;;;;;29.02;16.83;;;17.50;99.90;;;;;;5032742;28;20036;-69
2021/09/20 04:43:12;;;;;;;20.02;16.80;;;17.50;99.90;;;;;;5033081;28;20025;-70
2021/09/20 04:45:39;;;;;;;23.27;17.00;;;17.40;99.90;;;;;;5033040;28;20061;-72
2021/09/20 04:48:10;;;;;;;23.50;17.35;;;17.50;99.90;;;;;;5015112;28;20482;-71
2021/09/20 04:50:44;;;;;;;22.73;16.05;;;17.50;99.90;;;;;;5015214;28;20034;-72
2021/09/20 04:53:11;;;;;;;22.35;16.33;;;17.50;99.90;;;;;;5033073;28;20036;-70
2021/09/20 04:55:37;;;;;;;25.63;17.05;;;17.50;99.90;;;;;;5032703;28;20481;-72
2021/09/20 04:58:05;;;;;;;21.42;17.08;;;17.50;99.90;;;;;;5033192;28;20035;-72
2021/09/20 05:00:31;;;;;;;21.70;16.00;;;17.50;99.90;;;;;;5032949;28;20108;-71
2021/09/20 05:02:57;;;;;;;27.67;17.48;;;17.50;99.90;;;;;;5032871;28;20140;-72
2021/09/20 05:05:22;;;;;;;28.73;16.25;;;17.50;99.90;;;;;;5015045;28;20037;-71
2021/09/20 05:07:48;;;;;;;25.67;14.45;;;17.50;99.90;;;;;;5015000;28;20474;-69
2021/09/20 05:10:15;;;;;;;15.77;9.52;;;17.60;99.90;;;;;;5014980;28;20026;-70
2021/09/20 05:12:41;;;;;;;12.10;8.95;;;17.60;99.90;;;;;;5014937;28;20470;-68
2021/09/20 05:15:09;;;;;;;13.70;7.80;;;17.60;99.90;;;;;;5032751;28;20111;-69
2021/09/20 05:17:36;;;;;;;7.68;6.82;;;17.60;99.90;;;;;;5032682;28;20037;-70
2021/09/20 05:20:04;;;;;;;8.73;6.55;;;17.60;99.90;;;;;;5032970;28;20533;-70
2021/09/20 05:22:30;;;;;;;11.73;8.60;;;17.60;99.90;;;;;;5032465;28;20101;-70
2021/09/20 05:24:56;;;;;;;12.50;8.73;;;17.50;99.90;;;;;;5014882;28;20433;-70
2021/09/20 05:27:22;;;;;;;8.00;6.57;;;17.40;99.90;;;;;;5032285;28;20034;-69
2021/09/20 05:29:50;;;;;;;11.57;9.13;;;17.30;99.90;;;;;;5032602;28;20029;-71
2021/09/20 05:32:16;;;;;;;14.55;7.93;;;17.20;99.90;;;;;;5032604;28;20033;-70
2021/09/20 05:34:42;;;;;;;15.57;11.57;;;17.10;99.90;;;;;;5032521;28;20433;-70
2021/09/20 05:37:08;;;;;;;26.05;15.80;;;17.10;99.90;;;;;;5036045;28;20083;-70
2021/09/20 05:39:34;;;;;;;25.17;17.27;;;17.10;99.90;;;;;;5018478;28;20034;-70
2021/09/20 05:42:00;;;;;;;28.98;17.23;;;17.10;99.90;;;;;;5036301;28;20029;-71
2021/09/20 05:44:26;;;;;;;22.95;15.23;;;17.20;99.90;;;;;;5036139;28;20029;-72
2021/09/20 05:46:52;;;;;;;23.42;14.63;;;17.30;99.90;;;;;;5018047;28;20116;-72
2021/09/20 05:49:18;;;;;;;16.30;11.45;;;17.40;99.90;;;;;;5035812;28;20056;-72
2021/09/20 05:51:44;;;;;;;12.75;8.35;;;17.40;99.90;;;;;;5036286;28;20033;-73
2021/09/20 05:54:10;;;;;;;7.05;6.20;;;17.30;99.90;;;;;;5035784;28;20355;-72
2021/09/20 05:56:36;;;;;;;9.13;7.22;;;17.30;99.90;;;;;;5017610;28;20022;-72
2021/09/20 05:59:02;;;;;;;7.38;5.82;;;17.40;99.90;;;;;;5017761;28;20044;-71
2021/09/20 06:01:28;;;;;;;8.00;6.35;;;17.60;99.90;;;;;;5035669;28;20091;-71
2021/09/20 06:03:54;;;;;;;8.43;6.75;;;17.80;99.90;;;;;;5035584;28;20466;-74
2021/09/20 06:06:20;;;;;;;9.35;7.15;;;18.00;99.90;;;;;;5017867;28;20032;-72
2021/09/20 06:08:46;;;;;;;7.40;6.70;;;18.00;99.90;;;;;;5035687;28;20041;-69
2021/09/20 06:11:14;;;;;;;6.10;5.50;;;18.10;99.90;;;;;;5017581;28;20041;-71
2021/09/20 06:13:40;;;;;;;6.88;5.75;;;18.10;99.90;;;;;;5035308;28;20382;-71
2021/09/20 06:16:06;;;;;;;10.15;5.88;;;18.00;99.90;;;;;;5017240;28;20147;-71
2021/09/20 06:18:33;;;;;;;7.70;6.00;;;17.90;99.90;;;;;;5034646;28;20038;-73
2021/09/20 06:20:59;;;;;;;15.85;9.82;;;17.90;99.90;;;;;;5034220;28;20021;-68
2021/09/20 06:23:25;;;;;;;15.50;9.98;;;17.70;99.90;;;;;;5034923;28;20494;-70
2021/09/20 06:25:50;;;;;;;14.60;9.98;;;17.60;99.90;;;;;;5034990;28;20025;-72
2021/09/20 06:28:16;;;;;;;19.92;10.00;;;17.70;99.90;;;;;;5017386;28;20084;-70
2021/09/20 06:30:42;;;;;;;13.05;9.52;;;17.70;99.90;;;;;;5035251;28;20112;-71
2021/09/20 06:33:08;;;;;;;11.30;9.05;;;17.80;99.90;;;;;;5045777;28;20143;-73
2021/09/20 06:35:34;;;;;;;9.30;8.30;;;17.80;99.90;;;;;;5055373;28;20159;-71
2021/09/20 06:38:00;;;;;;;12.27;9.07;;;17.70;99.90;;;;;;5055120;28;20029;-74
2021/09/20 06:40:26;;;;;;;19.98;10.98;;;17.50;99.90;;;;;;5036979;28;20051;-69
2021/09/20 06:42:52;;;;;;;9.55;8.00;;;17.50;99.90;;;;;;5036754;28;20039;-72
2021/09/20 06:45:18;;;;;;;17.27;9.43;;;17.50;99.90;;;;;;5054885;28;20035;-70
2021/09/20 06:47:44;;;;;;;9.77;8.25;;;17.40;99.90;;;;;;5054781;28;20033;-72
2021/09/20 06:50:12;;;;;;;13.82;7.10;;;17.20;99.90;;;;;;5054554;28;20104;-71
2021/09/20 06:52:38;;;;;;;16.20;8.70;;;17.20;99.90;;;;;;5054902;28;20025;-70
2021/09/20 06:55:05;;;;;;;8.70;7.28;;;17.10;99.90;;;;;;5054865;28;20584;-70
2021/09/20 06:57:31;;;;;;;7.25;6.65;;;17.10;99.90;;;;;;5054762;28;20481;-69
2021/09/20 06:59:57;;;;;;;11.00;6.80;;;17.10;99.90;;;;;;5054360;28;20036;-69
2021/09/20 07:02:22;;;;;;;12.35;6.97;;;17.10;99.90;;;;;;5036716;28;20033;-72
2021/09/20 07:04:48;;;;;;;8.60;6.57;;;17.00;99.90;;;;;;5054592;28;20033;-72
2021/09/20 07:07:17;;;;;;;8.45;7.30;;;16.90;99.90;;;;;;5054474;28;20048;-71
2021/09/20 07:09:43;;;;;;;9.18;7.40;;;16.90;99.90;;;;;;5036506;28;20428;-71
2021/09/20 07:12:09;;;;;;;10.38;8.00;;;16.90;99.90;;;;;;5054521;28;20025;-70
2021/09/20 07:14:35;;;;;;;13.73;7.30;;;16.90;99.90;;;;;;5053946;28;20031;-70
2021/09/20 07:17:01;;;;;;;11.75;8.48;;;16.80;99.90;;;;;;5054201;28;20032;-72
2021/09/20 07:19:26;;;;;;;12.05;8.15;;;16.70;99.90;;;;;;5036270;28;20063;-72
2021/09/20 07:21:52;;;;;;;11.10;8.30;;;16.70;99.90;;;;;;5036341;28;20033;-72
2021/09/20 07:24:18;;;;;;;8.70;6.78;;;16.50;99.90;;;;;;5036128;28;20037;-71
2021/09/20 07:26:44;;;;;;;11.25;7.50;;;;;;;;;;5054142;28;20029;-70
2021/09/20 07:29:10;;;;;;;17.15;7.80;;;16.30;99.90;;;;;;5036190;28;20384;-70
2021/09/20 07:31:36;;;;;;;15.32;9.02;;;16.40;99.90;;;;;;5036165;28;20021;-72
2021/09/20 07:34:02;;;;;;;11.25;8.23;;;;;;;;;;5032413;28;20085;-70
2021/09/20 07:36:28;;;;;;;11.68;8.75;;;;;;;;;;5032940;28;20030;-70
2021/09/20 07:38:55;;;;;;;10.45;9.23;;;16.40;99.90;;;;;;5032755;28;20033;-71
2021/09/20 07:41:21;;;;;;;10.60;8.90;;;16.20;99.90;;;;;;5033732;28;20038;-71
2021/09/20 07:43:47;;;;;;;15.18;11.55;;;16.10;99.90;;;;;;5034041;28;20025;-71
2021/09/20 07:46:19;;;;;;;13.68;12.30;;;;;;;;;;5033819;28;20029;-71
2021/09/20 07:48:46;;;;;;;17.10;15.32;;;;;;;;;;5032435;28;20030;-71
2021/09/20 07:51:12;;;;;;;18.05;16.25;;;;;;;;;;5032301;28;20026;-71
2021/09/20 07:53:39;;;;;;;22.92;18.33;;;;;;;;;;5033736;28;20104;-70
2021/09/20 07:56:05;;;;;;;18.90;17.05;;;;;;;;;;5032416;28;20018;-70
2021/09/20 07:58:31;;;;;;;19.58;16.52;;;16.00;99.90;;;;;;5032985;28;20033;-72
2021/09/20 08:00:58;;;;;;;17.67;15.85;;;15.90;99.90;;;;;;5033365;28;20025;-72
2021/09/20 08:03:24;;;;;;;19.95;16.75;;;15.80;99.90;;;;;;5033530;28;20018;-73
2021/09/20 08:05:52;;;;;;;20.63;18.50;;;15.80;99.90;;;;;;5032543;28;20359;-72
2021/09/20 08:08:18;;;;;;;20.48;17.27;;;15.70;99.90;;;;;;5032126;28;20033;-72
2021/09/20 08:10:45;;;;;;;20.67;16.88;;;;;;;;;;5032100;28;20374;-72
2021/09/20 08:13:11;;;;;;;19.42;16.20;;;15.70;99.90;;;;;;5032157;28;20033;-72
2021/09/20 08:15:37;;;;;;;19.92;17.83;;;15.60;99.90;;;;;;5033344;28;20029;-71
2021/09/20 08:18:04;;;;;;;21.13;18.85;;;15.50;99.90;;;;;;5031741;28;20057;-71
2021/09/20 08:20:31;;;;;;;20.83;17.67;;;;;;;;;;5033193;28;20037;-72
2021/09/20 08:22:57;;;;;;;20.45;18.05;;;;;;;;;;5031890;28;20025;-72
2021/09/20 08:25:24;;;;;;;19.10;17.13;;;;;;;;;;5032893;28;20030;-72
2021/09/20 08:27:51;;;;;;;21.73;18.17;;;;;;;;;;5033165;28;20482;-72
2021/09/20 08:30:17;;;;;;;23.33;18.15;;;;;;;;;;5033139;28;20056;-71
2021/09/20 08:32:44;;;;;;;24.92;17.02;;;;;;;;;;5034639;28;20022;-71
2021/09/20 08:35:11;;;;;;;17.95;15.95;;;;;;;;;;5035231;28;20025;-72
2021/09/20 08:37:36;;;;;;;18.52;15.45;;;15.40;99.90;;;;;;5053265;28;20028;-71
2021/09/20 08:40:05;;;;;;;19.50;14.25;;;15.00;99.90;;;;;;5035013;28;20031;-71
2021/09/20 08:42:31;;;;;;;15.88;11.88;;;14.90;99.90;;;;;;5052961;28;20035;-71
2021/09/20 08:44:57;;;;;;;20.45;11.98;;;14.90;99.90;;;;;;5034051;28;20025;-71
2021/09/20 08:47:23;;;;;;;13.25;11.20;;;;;;;;;;5033662;28;20025;-73
2021/09/20 08:49:51;;;;;;;18.02;15.18;;;14.90;99.90;;;;;;5034530;28;20021;-72
2021/09/20 08:52:16;;;;;;;17.65;12.65;;;15.00;99.90;;;;;;5052215;28;20056;-72
2021/09/20 08:54:43;;;;;;;15.77;11.13;;;14.90;99.90;;;;;;5034200;28;20060;-70
2021/09/20 08:57:09;;;;;;;13.88;11.25;;;14.80;99.90;;;;;;5034728;28;20556;-71
2021/09/20 08:59:35;;;;;;;13.77;10.45;;;14.80;99.90;;;;;;5052523;28;20062;-72
2021/09/20 09:02:02;;;;;;;12.82;9.50;;;14.80;99.90;;;;;;5034659;28;20047;-72
2021/09/20 09:04:36;;;;;;;11.73;8.50;;;14.80;99.90;;;;;;5034761;28;20077;-69
2021/09/20 09:07:11;;;;;;;10.38;8.98;;;14.80;99.90;;;;;;5034791;28;20025;-71
2021/09/20 09:09:40;;;;;;;11.52;9.05;;;14.70;99.90;;;;;;5054445;28;20043;-71
2021/09/20 09:12:15;;;;;;;12.70;7.35;;;;;;;;;;5038812;28;20033;-73
2021/09/20 09:14:49;;;;;;;21.58;13.77;;;14.70;99.90;;;;;;5056564;28;20025;-72
2021/09/20 09:17:25;;;;;;;13.48;10.23;;;14.50;99.90;;;;;;5056603;28;20028;-71
2021/09/20 09:20:12;;;;;;;10.35;7.40;;;14.50;99.90;;;;;;5056395;28;20021;-71
2021/09/20 09:22:40;;;;;;;8.73;6.40;;;14.50;99.90;;;;;;5056625;28;20487;-72
2021/09/20 09:25:08;;;;;;;8.57;6.32;;;14.50;99.90;;;;;;5038515;28;20119;-73
2021/09/20 09:27:37;;;;;;;7.45;5.72;;;14.50;99.90;;;;;;5056141;28;20048;-71
2021/09/20 09:30:17;;;;;;;11.00;7.40;;;14.50;99.90;;;;;;5056343;28;20442;-72
2021/09/20 09:32:44;;;;;;;8.23;7.03;;;14.70;99.90;;;;;;5038192;28;20060;-70
2021/09/20 09:35:12;;;;;;;8.07;5.80;;;14.70;99.90;;;;;;5056430;28;20465;-70
2021/09/20 09:37:40;;;;;;;9.95;6.75;;;14.60;99.90;;;;;;5038429;28;20492;-72
2021/09/20 09:40:14;;;;;;;15.55;8.05;;;14.70;99.90;;;;;;5056010;28;20021;-70
2021/09/20 09:42:41;;;;;;;11.27;7.28;;;14.70;99.90;;;;;;5038323;28;20017;-70
2021/09/20 09:45:33;;;;;;;6.18;5.18;;;14.80;99.90;;;;;;5056209;28;20040;-71
2021/09/20 09:48:10;;;;;;;7.40;5.03;;;14.70;99.90;;;;;;5051673;28;20366;-70
2021/09/20 09:50:51;;;;;;;6.80;4.80;;;14.60;99.90;;;;;;5055954;28;20091;-70
2021/09/20 09:53:35;;;;;;;7.63;5.35;;;14.60;99.90;;;;;;5056118;28;20029;-71
2021/09/20 09:56:18;;;;;;;12.13;7.35;;;14.60;99.90;;;;;;5037977;28;20029;-71
2021/09/20 09:59:03;;;;;;;7.10;6.35;;;14.50;99.90;;;;;;5056046;28;20033;-71
2021/09/20 10:01:38;;;;;;;6.18;5.68;;;14.50;99.90;;;;;;5053380;28;20481;-72
2021/09/20 10:04:30;;;;;;;8.10;6.88;;;14.50;99.90;;;;;;5048824;28;20029;-70
2021/09/20 10:07:00;;;;;;;8.95;5.68;;;14.50;99.90;;;;;;5017855;28;20493;-71
2021/09/20 10:09:30;;;;;;;6.55;5.95;;;14.40;99.90;;;;;;5017533;28;20075;-71
2021/09/20 10:12:00;;;;;;;14.55;9.70;;;14.30;99.90;;;;;;5017651;28;20033;-72
2021/09/20 10:14:28;;;;;;;10.77;7.25;;;14.20;99.90;;;;;;5017804;28;20112;-71
2021/09/20 10:16:56;;;;;;;6.18;5.10;;;14.10;99.90;;;;;;5035378;28;20025;-71
2021/09/20 10:19:22;;;;;;;13.75;7.97;;;14.10;99.90;;;;;;5035344;28;20026;-70
2021/09/20 10:21:50;;;;;;;7.82;6.70;;;14.20;99.90;;;;;;5034443;28;20075;-72
2021/09/20 10:24:18;;;;;;;5.30;4.80;;;14.20;99.90;;;;;;5035338;28;20032;-72
2021/09/20 10:26:44;;;;;;;14.00;7.63;;;14.30;99.90;;;;;;5041022;28;20422;-72
2021/09/20 10:29:14;;;;;;;7.43;6.07;;;14.40;99.90;;;;;;5054907;28;20064;-72
2021/09/20 10:31:43;;;;;;;7.57;6.20;;;14.50;99.90;;;;;;5054989;28;20032;-72
2021/09/20 10:34:18;;;;;;;11.50;7.55;;;14.40;99.90;;;;;;5054597;28;20049;-73
2021/09/20 10:36:50;;;;;;;10.48;5.82;;;14.40;99.90;;;;;;5055192;28;20051;-70
2021/09/20 10:39:15;;;;;;;;;;;14.50;99.90;;;;;;5055413;28;20052;-72
2021/09/20 10:41:41;;;;;;;6.25;4.78;;;14.50;99.90;;;;;;5036832;28;19956;-71
2021/09/20 10:44:10;;;;;;;5.57;5.07;;;14.50;99.90;;;;;;5055019;28;20036;-71
2021/09/20 10:46:40;;;;;;;7.70;5.28;;;14.60;99.90;;;;;;5054862;28;20021;-72
2021/09/20 10:49:18;;;;;;;5.45;4.95;;;14.60;99.90;;;;;;5054455;28;20028;-72
2021/09/20 10:52:01;;;;;;;5.40;4.90;;;14.50;99.90;;;;;;5054595;28;20457;-70
2021/09/20 10:54:28;;;;;;;5.00;4.50;;;14.50;99.90;;;;;;5054867;28;20044;-70
2021/09/20 10:57:08;;;;;;;10.23;4.32;;;14.50;99.90;;;;;;5036459;28;20021;-73
2021/09/20 10:59:34;;;;;;;5.90;4.97;;;14.40;99.90;;;;;;5036857;28;20115;-72
2021/09/20 11:02:04;;;;;;;4.60;4.20;;;14.50;99.90;;;;;;5054396;28;20345;-72
2021/09/20 11:04:37;;;;;;;5.07;4.68;;;14.60;99.90;;;;;;5054748;28;20017;-71
2021/09/20 11:07:07;;;;;;;5.75;5.25;;;14.40;99.90;;;;;;5054034;28;20795;-73
2021/09/20 11:10:01;;;;;;;6.38;5.70;;;14.40;99.90;;;;;;5054236;28;20596;-72
2021/09/20 11:12:28;;;;;;;6.88;5.30;;;14.40;99.90;;;;;;5054450;28;20020;-71
2021/09/20 11:15:13;;;;;;;6.70;6.10;;;14.30;99.90;;;;;;5054527;28;20029;-72
2021/09/20 11:17:47;;;;;;;5.45;4.28;;;14.30;99.90;;;;;;5036481;28;20132;-71
2021/09/20 11:20:24;;;;;;;10.02;6.80;;;14.40;99.90;;;;;;5054499;28;20059;-75
2021/09/20 11:22:50;;;;;;;10.38;6.95;;;14.40;99.90;;;;;;5054118;28;20112;-72
2021/09/20 11:25:17;;;;;;;8.63;6.60;;;14.40;99.90;;;;;;5036387;28;20104;-70
2021/09/20 11:27:48;;;;;;;14.02;5.43;;;14.40;99.90;;;;;;5036248;28;20595;-70
2021/09/20 11:30:18;;;;;;;8.55;5.32;;;14.40;99.90;;;;;;5054223;28;20025;-71
2021/09/20 11:32:55;;;;;;;6.35;5.10;;;14.30;99.90;;;;;;5052707;28;20041;-68
2021/09/20 11:35:24;;;;;;;7.28;5.38;;;14.30;99.90;;;;;;5036149;28;20021;-73
2021/09/20 11:37:50;;;;;;;5.68;4.63;;;14.40;99.90;;;;;;5036188;28;20477;-70
2021/09/20 11:40:18;;;;;;;5.22;4.72;;;14.50;99.90;;;;;;5053994;28;20031;-70
2021/09/20 11:42:48;;;;;;;5.38;4.85;;;14.50;99.90;;;;;;5035921;28;20112;-71
2021/09/20 11:45:16;;;;;;;5.13;4.30;;;14.50;99.90;;;;;;5053833;28;20025;-72
2021/09/20 11:47:50;;;;;;;8.85;4.93;;;14.60;99.90;;;;;;5053603;28;20048;-70
2021/09/20 11:50:33;;;;;;;7.03;5.30;;;14.70;99.90;;;;;;5053815;28;20031;-71
2021/09/20 11:53:05;;;;;;;4.28;3.88;;;14.50;99.90;;;;;;5035824;28;20025;-74
2021/09/20 11:55:39;;;;;;;5.55;4.00;;;14.50;99.90;;;;;;5053767;28;20025;-72
2021/09/20 11:58:09;;;;;;;4.70;4.13;;;14.50;99.90;;;;;;5035808;28;20175;-70
2021/09/20 12:00:38;;;;;;;4.97;4.30;;;14.60;99.90;;;;;;5053935;28;20359;-71
2021/09/20 12:03:08;;;;;;;4.15;3.75;;;14.60;99.90;;;;;;5053525;28;20017;-71
2021/09/20 12:16:08;;;;;;;3.28;3.00;;;14.60;99.90;;;;;;5090060;28;20770;-69
2021/09/20 12:18:34;;;;;;;4.00;2.70;;;14.90;99.90;;;;;;5085534;28;20036;-68
2021/09/20 12:21:05;;;;;;;4.68;3.30;;;14.80;99.90;;;;;;5072997;28;20372;-69
2021/09/20 12:23:35;;;;;;;5.35;2.53;;;15.00;99.90;;;;;;5090522;28;20035;-69
2021/09/20 12:26:02;;;;;;;2.40;2.30;;;15.00;99.90;;;;;;5088799;28;20135;-71
2021/09/20 12:28:50;;;;;;;3.85;2.85;;;15.00;99.90;;;;;;5089742;28;20035;-67
2021/09/20 12:31:36;;;;;;;2.53;2.33;;;15.00;99.90;;;;;;5088928;28;20091;-71
2021/09/20 12:37:27;;;;;;;2.20;2.05;;;15.00;99.90;;;;;;5080870;28;20522;-68
2021/09/20 12:39:53;;;;;;;1.98;1.88;;;15.00;99.90;;;;;;5089096;28;20388;-69
2021/09/20 12:42:22;;;;;;;2.00;1.85;;;15.10;99.90;;;;;;5089436;28;20024;-69
2021/09/20 12:44:49;;;;;;;2.15;2.05;;;15.20;99.90;;;;;;5088391;28;20024;-71
2021/09/20 12:47:23;;;;;;;1.58;1.48;;;15.30;99.90;;;;;;5074501;28;20127;-69
2021/09/20 12:50:04;;;;;;;1.70;1.60;;;15.40;99.90;;;;;;5069508;28;20074;-70
2021/09/20 12:52:39;;;;;;;1.50;1.40;;;15.40;99.90;;;;;;5069158;28;20051;-68
2021/09/20 12:55:06;;;;;;;1.77;1.55;;;15.30;99.90;;;;;;5069278;28;20024;-69
2021/09/20 12:57:32;;;;;;;1.60;1.50;;;15.40;99.90;;;;;;5069053;28;20493;-72
2021/09/20 13:00:03;;;;;;;1.80;1.70;;;15.30;99.90;;;;;;5069175;28;20056;-70
2021/09/20 13:02:29;;;;;;;1.75;1.65;;;15.20;99.90;;;;;;5067869;28;20047;-72